createdAt,value
2019-03-04T00:01:39.677Z,13.37
2019-03-04T00:04:11.152Z,13.30
2019-03-04T00:06:42.388Z,13.25
2019-03-04T00:09:13.733Z,13.39
2019-03-04T00:11:45.021Z,13.46
2019-03-04T00:14:17.362Z,13.55
2019-03-04T00:16:49.361Z,13.48
2019-03-04T00:19:20.489Z,13.52
2019-03-04T00:21:51.865Z,13.61
2019-03-04T00:24:23.254Z,13.76
2019-03-04T00:26:55.217Z,13.71
2019-03-04T00:29:28.214Z,13.71
2019-03-04T00:31:59.429Z,13.60
2019-03-04T00:34:30.443Z,13.68
2019-03-04T00:37:01.663Z,13.71
2019-03-04T00:39:32.978Z,13.78
2019-03-04T00:42:04.267Z,13.69
2019-03-04T00:44:35.264Z,13.67
2019-03-04T00:47:06.644Z,13.74
2019-03-04T00:49:37.696Z,13.73
2019-03-04T00:52:09.328Z,13.81
2019-03-04T00:54:40.571Z,13.74
2019-03-04T00:57:11.571Z,13.67
2019-03-04T00:59:42.631Z,13.67
2019-03-04T01:02:13.612Z,13.67
2019-03-04T01:04:45.250Z,13.64
2019-03-04T01:07:17.161Z,13.60
2019-03-04T01:09:48.932Z,13.51
2019-03-04T01:12:19.926Z,13.50
2019-03-04T01:14:51.308Z,13.50
2019-03-04T01:17:22.392Z,13.42
2019-03-04T01:19:53.454Z,13.16
2019-03-04T01:22:24.761Z,13.16
2019-03-04T01:24:55.739Z,13.18
2019-03-04T01:27:26.773Z,13.15
2019-03-04T01:29:58.089Z,13.15
2019-03-04T01:32:29.645Z,12.95
2019-03-04T01:35:00.865Z,12.99
2019-03-04T01:37:31.991Z,13.09
2019-03-04T01:40:03.077Z,13.11
2019-03-04T01:42:35.203Z,13.09
2019-03-04T01:45:06.847Z,12.90
2019-03-04T01:47:38.176Z,13.00
2019-03-04T01:50:11.949Z,12.95
2019-03-04T01:52:43.478Z,12.83
2019-03-04T01:55:16.830Z,12.86
2019-03-04T01:57:48.138Z,12.76
2019-03-04T02:00:20.247Z,12.80
2019-03-04T02:02:51.787Z,12.82
2019-03-04T02:05:22.989Z,12.75
2019-03-04T02:07:54.221Z,12.89
2019-03-04T02:10:25.529Z,12.85
2019-03-04T02:12:56.511Z,12.93
2019-03-04T02:15:27.897Z,12.91
2019-03-04T02:17:59.276Z,12.93
2019-03-04T02:20:30.748Z,12.97
2019-03-04T02:23:01.765Z,12.96
2019-03-04T02:26:20.405Z,12.89
2019-03-04T02:28:51.526Z,12.91
2019-03-04T02:31:22.600Z,12.94
2019-03-04T02:33:53.990Z,12.95
2019-03-04T02:36:25.336Z,12.96
2019-03-04T02:38:56.775Z,13.06
2019-03-04T02:41:28.046Z,13.04
2019-03-04T02:43:59.002Z,13.03
2019-03-04T02:46:30.022Z,13.11
2019-03-04T02:49:01.006Z,13.09
2019-03-04T02:51:32.062Z,13.12
2019-03-04T02:54:03.339Z,13.04
2019-03-04T02:56:35.607Z,13.18
2019-03-04T02:59:06.658Z,13.09
2019-03-04T03:01:37.887Z,13.08
2019-03-04T03:04:09.223Z,13.13
2019-03-04T03:06:40.357Z,13.13
2019-03-04T03:09:12.717Z,13.11
2019-03-04T03:11:43.701Z,13.20
2019-03-04T03:14:14.718Z,13.15
2019-03-04T03:16:45.695Z,13.13
2019-03-04T03:19:17.924Z,13.04
2019-03-04T03:21:49.164Z,13.12
2019-03-04T03:24:20.738Z,13.03
2019-03-04T03:26:51.746Z,12.85
2019-03-04T03:29:23.011Z,12.82
2019-03-04T03:31:54.511Z,12.82
2019-03-04T03:34:25.502Z,12.91
2019-03-04T03:36:57.052Z,12.84
2019-03-04T03:39:28.018Z,12.96
2019-03-04T03:41:59.515Z,12.91
2019-03-04T03:44:30.499Z,12.97
2019-03-04T03:47:02.083Z,13.02
2019-03-04T03:49:33.311Z,12.96
2019-03-04T03:52:04.372Z,12.97
2019-03-04T03:54:35.731Z,12.93
2019-03-04T03:57:06.739Z,12.94
2019-03-04T03:59:38.756Z,12.93
2019-03-04T04:02:10.128Z,12.92
2019-03-04T04:04:41.099Z,12.85
2019-03-04T04:07:12.399Z,12.88
2019-03-04T04:09:43.736Z,12.99
2019-03-04T04:12:14.733Z,12.87
2019-03-04T04:14:45.765Z,12.86
2019-03-04T04:17:17.589Z,12.76
2019-03-04T04:19:49.101Z,12.82
2019-03-04T04:22:20.180Z,12.82
2019-03-04T04:24:51.613Z,12.84
2019-03-04T04:27:22.919Z,12.77
2019-03-04T04:29:54.161Z,12.73
2019-03-04T04:32:25.498Z,12.68
2019-03-04T04:34:57.089Z,12.63
2019-03-04T04:37:28.106Z,12.72
2019-03-04T04:39:59.121Z,12.66
2019-03-04T04:42:30.682Z,12.74
2019-03-04T04:45:02.009Z,12.87
2019-03-04T04:47:32.997Z,12.84
2019-03-04T04:50:04.145Z,12.81
2019-03-04T04:52:36.045Z,12.81
2019-03-04T04:55:07.310Z,12.93
2019-03-04T04:57:38.360Z,12.92
2019-03-04T05:00:12.739Z,12.78
2019-03-04T05:02:43.852Z,12.72
2019-03-04T05:05:15.179Z,12.72
2019-03-04T05:07:46.316Z,12.72
2019-03-04T05:10:18.574Z,12.78
2019-03-04T05:12:49.875Z,12.88
2019-03-04T05:15:21.019Z,12.80
2019-03-04T05:17:52.264Z,12.86
2019-03-04T05:20:23.489Z,12.69
2019-03-04T05:22:54.934Z,12.83
2019-03-04T05:25:26.349Z,12.78
2019-03-04T05:27:57.423Z,12.87
2019-03-04T05:30:28.516Z,12.80
2019-03-04T05:33:00.061Z,12.72
2019-03-04T05:35:31.157Z,12.75
2019-03-04T05:38:03.624Z,12.83
2019-03-04T05:40:34.671Z,12.80
2019-03-04T05:43:06.989Z,12.69
2019-03-04T05:45:38.692Z,12.69
2019-03-04T05:48:10.117Z,12.73
2019-03-04T05:50:41.413Z,12.72
2019-03-04T05:53:12.718Z,12.60
2019-03-04T05:55:43.854Z,12.58
2019-03-04T05:58:14.878Z,12.68
2019-03-04T06:00:46.129Z,12.68
2019-03-04T06:03:17.901Z,12.64
2019-03-04T06:05:48.990Z,12.63
2019-03-04T06:08:20.265Z,12.68
2019-03-04T06:10:51.855Z,12.66
2019-03-04T06:13:22.855Z,12.58
2019-03-04T06:15:54.882Z,12.63
2019-03-04T06:18:26.138Z,12.64
2019-03-04T06:20:57.165Z,12.67
2019-03-04T06:23:28.213Z,12.75
2019-03-04T06:25:59.250Z,12.68
2019-03-04T06:28:30.876Z,12.72
2019-03-04T06:31:01.874Z,12.58
2019-03-04T06:33:32.878Z,12.58
2019-03-04T06:36:04.147Z,12.58
2019-03-04T06:38:36.978Z,12.60
2019-03-04T06:41:08.052Z,12.58
2019-03-04T06:43:39.039Z,12.59
2019-03-04T06:46:10.304Z,12.59
2019-03-04T06:48:41.552Z,12.57
2019-03-04T06:51:21.090Z,12.63
2019-03-04T06:54:33.328Z,12.59
2019-03-04T06:57:13.350Z,12.54
2019-03-04T07:00:38.608Z,12.46
2019-03-04T07:03:24.568Z,12.45
2019-03-04T07:05:55.781Z,12.42
2019-03-04T07:09:15.979Z,12.29
2019-03-04T07:11:50.312Z,12.18
2019-03-04T07:14:21.449Z,12.53
2019-03-04T07:16:53.708Z,12.96
2019-03-04T07:19:27.088Z,13.23
2019-03-04T07:21:58.441Z,13.45
2019-03-04T07:24:29.740Z,13.46
2019-03-04T07:27:00.813Z,13.81
2019-03-04T07:29:31.802Z,13.91
2019-03-04T07:32:02.774Z,13.96
2019-03-04T07:34:34.112Z,13.97
2019-03-04T07:37:06.433Z,14.09
2019-03-04T07:39:38.418Z,14.17
2019-03-04T07:42:09.388Z,14.24
2019-03-04T07:44:40.367Z,14.31
2019-03-04T07:47:11.874Z,14.39
2019-03-04T07:49:47.786Z,14.37
2019-03-04T07:52:20.108Z,14.41
2019-03-04T07:54:51.642Z,14.64
2019-03-04T07:57:22.982Z,14.53
2019-03-04T07:59:54.109Z,14.32
2019-03-04T08:02:25.138Z,14.43
2019-03-04T08:04:56.189Z,14.15
2019-03-04T08:07:49.590Z,13.92
2019-03-04T08:11:25.165Z,13.96
2019-03-04T08:14:00.621Z,13.66
2019-03-04T08:16:32.361Z,13.38
2019-03-04T08:19:04.978Z,13.15
2019-03-04T08:21:36.940Z,12.97
2019-03-04T08:24:08.088Z,12.82
2019-03-04T08:26:39.453Z,12.51
2019-03-04T08:29:10.548Z,12.30
2019-03-04T08:31:41.681Z,12.29
2019-03-04T08:34:12.752Z,11.83
2019-03-04T08:36:43.783Z,11.53
2019-03-04T08:39:14.867Z,11.40
2019-03-04T08:41:45.871Z,11.40
2019-03-04T08:44:16.922Z,11.15
2019-03-04T08:46:48.557Z,11.21
2019-03-04T08:49:19.629Z,11.13
2019-03-04T08:51:51.138Z,11.14
2019-03-04T08:54:22.124Z,11.33
2019-03-04T08:57:00.817Z,11.22
2019-03-04T08:59:26.037Z,11.37
2019-03-04T09:01:57.132Z,11.49
2019-03-04T09:04:28.586Z,11.34
2019-03-04T09:09:43.181Z,11.44
2019-03-04T09:15:18.984Z,11.37
2019-03-04T09:17:53.275Z,11.40
2019-03-04T09:20:24.868Z,11.50
2019-03-04T09:22:56.139Z,11.47
2019-03-04T09:25:34.431Z,11.49
2019-03-04T09:28:06.325Z,11.58
2019-03-04T09:30:37.308Z,11.49
2019-03-04T09:33:08.318Z,11.77
2019-03-04T09:35:39.675Z,11.88
2019-03-04T09:38:10.744Z,11.82
2019-03-04T09:40:41.726Z,11.85
2019-03-04T09:43:12.790Z,11.85
2019-03-04T09:45:44.143Z,12.06
2019-03-04T09:48:15.333Z,12.16
2019-03-04T09:50:46.607Z,12.14
2019-03-04T09:53:18.581Z,12.35
2019-03-04T09:55:49.812Z,12.37
2019-03-04T09:58:20.958Z,12.39
2019-03-04T10:01:27.069Z,12.33
2019-03-04T10:04:53.794Z,12.30
2019-03-04T10:07:50.739Z,12.30
2019-03-04T10:10:53.243Z,12.39
2019-03-04T10:13:59.291Z,12.45
2019-03-04T10:17:10.262Z,12.48
2019-03-04T10:20:26.994Z,12.43
2019-03-04T10:24:10.165Z,12.28
2019-03-04T10:27:27.518Z,12.23
2019-03-04T10:30:35.629Z,12.20
2019-03-04T10:34:07.640Z,12.21
2019-03-04T10:37:07.375Z,12.26
2019-03-04T10:40:11.467Z,12.20
2019-03-04T10:43:58.204Z,12.18
2019-03-04T10:46:56.697Z,12.11
2019-03-04T10:49:32.624Z,11.99
2019-03-04T10:52:03.739Z,11.90
2019-03-04T10:54:35.421Z,12.20
2019-03-04T10:57:06.840Z,12.11
2019-03-04T10:59:37.916Z,12.08
2019-03-04T11:02:08.966Z,12.01
2019-03-04T11:04:39.992Z,11.95
2019-03-04T11:07:11.127Z,11.96
2019-03-04T11:09:42.445Z,12.12
2019-03-04T11:12:14.192Z,12.05
2019-03-04T11:14:45.417Z,12.07
2019-03-04T11:17:16.481Z,11.99
2019-03-04T11:19:48.831Z,12.12
2019-03-04T11:22:19.823Z,12.11
2019-03-04T11:24:51.075Z,12.08
2019-03-04T11:27:22.280Z,11.87
2019-03-04T11:29:53.386Z,11.96
2019-03-04T11:32:24.420Z,12.02
2019-03-04T11:34:56.005Z,12.00
2019-03-04T11:37:27.142Z,11.91
2019-03-04T11:40:03.584Z,11.88
2019-03-04T11:42:34.582Z,12.07
2019-03-04T11:45:09.040Z,12.13
2019-03-04T11:47:40.320Z,12.26
2019-03-04T11:50:13.724Z,12.19
2019-03-04T11:52:44.841Z,11.96
2019-03-04T11:55:15.988Z,12.11
2019-03-04T11:57:47.072Z,12.19
2019-03-04T12:00:27.621Z,12.30
2019-03-04T12:02:58.799Z,12.26
2019-03-04T12:05:29.876Z,12.14
2019-03-04T12:08:01.117Z,12.25
2019-03-04T12:10:32.102Z,12.27
2019-03-04T12:13:03.952Z,12.34
2019-03-04T12:15:35.051Z,12.38
2019-03-04T12:18:06.566Z,12.27
2019-03-04T12:20:38.053Z,12.12
2019-03-04T12:23:09.122Z,12.24
2019-03-04T12:25:40.204Z,12.15
2019-03-04T12:28:11.513Z,11.97
2019-03-04T12:30:42.663Z,12.08
2019-03-04T12:33:14.097Z,12.18
2019-03-04T12:35:45.566Z,12.21
2019-03-04T12:38:19.149Z,12.14
2019-03-04T12:40:50.138Z,12.08
2019-03-04T12:43:22.185Z,11.96
2019-03-04T12:45:53.925Z,12.27
2019-03-04T12:48:27.962Z,12.19
2019-03-04T12:51:00.009Z,12.39
2019-03-04T12:53:37.403Z,12.38
2019-03-04T12:56:03.808Z,12.57
2019-03-04T12:58:34.781Z,12.75
2019-03-04T13:01:06.024Z,13.02
2019-03-04T13:03:37.445Z,13.10
2019-03-04T13:06:08.904Z,13.10
2019-03-04T13:08:39.968Z,13.35
2019-03-04T13:11:11.539Z,13.40
2019-03-04T13:13:42.522Z,13.29
2019-03-04T13:16:13.612Z,13.34
2019-03-04T13:18:45.009Z,13.44
2019-03-04T13:21:16.200Z,13.30
2019-03-04T13:23:47.439Z,13.27
2019-03-04T13:26:19.758Z,13.40
2019-03-04T13:28:50.826Z,13.48
2019-03-04T13:31:22.280Z,13.52
2019-03-04T13:33:53.336Z,13.62
2019-03-04T13:36:25.509Z,13.72
2019-03-04T13:38:56.727Z,13.92
2019-03-04T13:41:27.798Z,13.96
2019-03-04T13:43:59.050Z,14.01
2019-03-04T13:46:30.131Z,14.11
2019-03-04T13:49:01.673Z,14.12
2019-03-04T13:51:33.176Z,14.07
2019-03-04T13:54:04.247Z,14.00
2019-03-04T13:56:35.275Z,13.95
2019-03-04T13:59:06.331Z,13.97
2019-03-04T14:01:37.652Z,14.30
2019-03-04T14:04:09.125Z,14.25
2019-03-04T14:06:40.477Z,14.26
2019-03-04T14:09:12.314Z,14.21
2019-03-04T14:11:43.716Z,14.20
2019-03-04T14:14:14.686Z,14.07
2019-03-04T14:16:46.087Z,14.33
2019-03-04T14:19:17.298Z,14.35
2019-03-04T14:21:49.351Z,14.26
2019-03-04T14:24:20.436Z,14.22
2019-03-04T14:26:51.549Z,13.92
2019-03-04T14:29:22.871Z,13.88
2019-03-04T14:31:54.115Z,13.94
2019-03-04T14:34:25.506Z,13.85
2019-03-04T14:36:57.115Z,13.78
2019-03-04T14:39:28.375Z,13.77
2019-03-04T14:41:59.456Z,13.62
2019-03-04T14:44:30.677Z,13.77
2019-03-04T14:47:01.837Z,13.87
2019-03-04T14:49:33.920Z,14.05
2019-03-04T14:52:05.018Z,14.16
2019-03-04T14:54:36.002Z,14.09
2019-03-04T14:57:07.085Z,13.89
2019-03-04T14:59:38.073Z,14.05
2019-03-04T15:02:09.224Z,13.85
2019-03-04T15:04:40.334Z,13.54
2019-03-04T15:07:11.352Z,13.14
2019-03-04T15:09:49.233Z,13.15
2019-03-04T15:12:21.191Z,13.09
2019-03-04T15:14:54.533Z,12.90
2019-03-04T15:17:31.071Z,12.85
2019-03-04T15:20:09.309Z,12.98
2019-03-04T15:22:35.477Z,13.07
2019-03-04T15:25:09.396Z,12.67
2019-03-04T15:27:40.456Z,12.40
2019-03-04T15:30:12.686Z,12.39
2019-03-04T15:32:43.775Z,12.33
2019-03-04T15:35:14.991Z,12.04
2019-03-04T15:37:45.989Z,11.88
2019-03-04T15:40:17.099Z,11.48
2019-03-04T15:42:49.323Z,11.43
2019-03-04T15:45:20.460Z,11.04
2019-03-04T15:47:51.500Z,10.40
2019-03-04T15:50:22.629Z,10.20
2019-03-04T15:52:54.122Z,9.93
2019-03-04T15:55:25.467Z,9.98
2019-03-04T15:57:56.498Z,9.81
2019-03-04T16:00:27.615Z,9.60
2019-03-04T16:02:58.754Z,9.77
2019-03-04T16:05:30.177Z,9.67
2019-03-04T16:08:07.463Z,9.92
2019-03-04T16:10:36.072Z,9.81
2019-03-04T16:13:07.923Z,10.07
2019-03-04T16:15:41.125Z,9.94
2019-03-04T16:18:12.593Z,10.12
2019-03-04T16:20:43.833Z,10.20
2019-03-04T16:23:15.072Z,10.27
2019-03-04T16:25:46.292Z,10.48
2019-03-04T16:28:21.244Z,10.03
2019-03-04T16:30:52.954Z,10.34
2019-03-04T16:33:25.019Z,10.05
2019-03-04T16:35:56.811Z,9.91
2019-03-04T16:38:28.288Z,10.01
2019-03-04T16:40:59.514Z,10.22
2019-03-04T16:43:30.670Z,10.13
2019-03-04T16:46:02.040Z,10.25
2019-03-04T16:48:34.451Z,10.07
2019-03-04T16:51:05.575Z,9.79
2019-03-04T16:53:38.090Z,9.80
2019-03-04T16:56:09.198Z,9.87
2019-03-04T16:58:40.491Z,9.79
2019-03-04T17:01:12.400Z,9.66
2019-03-04T17:03:43.864Z,9.37
2019-03-04T17:06:14.918Z,9.28
2019-03-04T17:08:46.027Z,9.42
2019-03-04T17:11:17.249Z,9.41
2019-03-04T17:15:18.913Z,9.08
2019-03-04T17:17:50.419Z,9.04
2019-03-04T17:20:22.547Z,9.41
2019-03-04T17:22:54.178Z,9.30
2019-03-04T17:25:25.516Z,9.22
2019-03-04T17:27:56.879Z,9.32
2019-03-04T17:30:28.337Z,9.24
2019-03-04T17:32:59.778Z,9.20
2019-03-04T17:35:31.165Z,9.26
2019-03-04T17:38:02.614Z,9.08
2019-03-04T17:40:34.291Z,9.35
2019-03-04T17:43:05.901Z,9.23
2019-03-04T17:45:38.696Z,9.22
2019-03-04T17:48:11.647Z,9.14
2019-03-04T17:50:43.059Z,9.10
2019-03-04T17:53:14.403Z,9.05
2019-03-04T17:55:45.639Z,8.89
2019-03-04T17:58:17.201Z,9.08
2019-03-04T18:00:52.732Z,9.19
2019-03-04T18:03:23.953Z,8.74
2019-03-04T18:05:56.036Z,8.78
2019-03-04T18:08:27.069Z,8.99
2019-03-04T18:10:58.133Z,8.95
2019-03-04T18:13:29.154Z,8.86
2019-03-04T18:16:00.229Z,8.92
2019-03-04T18:18:31.860Z,9.12
2019-03-04T18:21:02.947Z,9.05
2019-03-04T18:23:34.182Z,8.67
2019-03-04T18:26:14.318Z,8.97
2019-03-04T18:29:04.371Z,9.05
2019-03-04T18:32:04.375Z,8.96
2019-03-04T18:35:02.341Z,9.08
2019-03-04T18:38:35.085Z,9.31
2019-03-04T18:42:15.216Z,9.14
2019-03-04T18:45:16.729Z,9.08
2019-03-04T18:48:37.049Z,9.18
2019-03-04T18:51:08.156Z,9.12
2019-03-04T18:53:39.536Z,9.20
2019-03-04T18:56:10.698Z,9.39
2019-03-04T18:58:42.041Z,9.60
2019-03-04T19:01:15.449Z,9.56
2019-03-04T19:03:46.591Z,9.69
2019-03-04T19:06:17.878Z,9.73
2019-03-04T19:08:50.323Z,9.77
2019-03-04T19:11:23.724Z,9.71
2019-03-04T19:13:55.253Z,9.72
2019-03-04T19:16:26.346Z,9.55
2019-03-04T19:18:57.942Z,9.48
2019-03-04T19:21:29.290Z,9.46
2019-03-04T19:24:00.573Z,9.19
2019-03-04T19:26:31.968Z,9.42
2019-03-04T19:29:02.955Z,9.46
2019-03-04T19:31:34.928Z,9.62
2019-03-04T19:34:06.437Z,9.56
2019-03-04T19:36:39.041Z,9.20
2019-03-04T19:39:10.779Z,9.20
2019-03-04T19:41:42.215Z,9.18
2019-03-04T19:44:13.325Z,9.19
2019-03-04T19:46:44.818Z,9.09
2019-03-04T19:49:15.896Z,9.28
2019-03-04T19:51:47.228Z,9.47
2019-03-04T19:54:20.220Z,9.46
2019-03-04T19:56:52.405Z,9.45
2019-03-04T19:59:23.769Z,9.52
2019-03-04T20:01:54.891Z,9.51
2019-03-04T20:04:26.025Z,9.46
2019-03-04T20:06:57.445Z,9.39
2019-03-04T20:09:28.411Z,9.34
2019-03-04T20:11:59.555Z,9.24
2019-03-04T20:14:30.786Z,8.99
2019-03-04T20:17:02.511Z,8.88
2019-03-04T20:19:33.550Z,9.14
2019-03-04T20:22:04.665Z,9.34
2019-03-04T20:24:35.813Z,9.09
2019-03-04T20:27:06.902Z,9.00
2019-03-04T20:29:38.559Z,9.11
2019-03-04T20:32:09.732Z,9.05
2019-03-04T20:34:40.940Z,8.94
2019-03-04T20:37:12.266Z,8.79
2019-03-04T20:39:43.752Z,8.73
2019-03-04T20:42:15.199Z,8.82
2019-03-04T20:44:46.703Z,8.78
2019-03-04T20:47:17.755Z,8.68
2019-03-04T20:49:50.731Z,8.76
2019-03-04T20:52:21.733Z,8.86
2019-03-04T20:54:52.788Z,8.74
2019-03-04T20:57:24.229Z,8.75
2019-03-04T20:59:55.631Z,8.78
2019-03-04T21:02:26.796Z,8.89
2019-03-04T21:04:57.769Z,8.84
2019-03-04T21:07:29.022Z,8.41
2019-03-04T21:10:00.316Z,8.65
2019-03-04T21:12:31.434Z,8.72
2019-03-04T21:15:02.455Z,8.80
2019-03-04T21:17:33.949Z,8.65
2019-03-04T21:20:06.079Z,8.69
2019-03-04T21:22:38.988Z,8.72
2019-03-04T21:25:50.201Z,8.64
2019-03-04T21:28:56.780Z,8.67
2019-03-04T21:32:02.233Z,8.79
2019-03-04T21:35:51.985Z,8.67
2019-03-04T21:38:28.298Z,8.47
2019-03-04T21:41:17.143Z,8.68
2019-03-04T21:44:41.410Z,8.61
2019-03-04T21:47:47.125Z,8.49
2019-03-04T21:50:24.089Z,8.43
2019-03-04T21:53:09.641Z,8.31
2019-03-04T21:56:11.729Z,8.28
2019-03-04T21:58:44.024Z,8.01
2019-03-04T22:01:24.890Z,7.95
2019-03-04T22:03:55.947Z,7.93
2019-03-04T22:06:27.070Z,8.04
2019-03-04T22:08:58.446Z,7.96
2019-03-04T22:11:29.556Z,8.27
2019-03-04T22:14:01.096Z,8.48
2019-03-04T22:16:32.130Z,8.52
2019-03-04T22:19:03.238Z,8.31
2019-03-04T22:21:35.367Z,8.41
2019-03-04T22:24:06.417Z,8.34
2019-03-04T22:26:38.691Z,8.29
2019-03-04T22:29:09.741Z,8.02
2019-03-04T22:31:40.859Z,8.01
2019-03-04T22:34:11.872Z,7.97
2019-03-04T22:36:42.930Z,8.05
2019-03-04T22:39:14.288Z,8.11
2019-03-04T22:41:45.322Z,8.10
2019-03-04T22:44:16.460Z,8.20
2019-03-04T22:46:47.495Z,8.24
2019-03-04T22:49:18.798Z,8.48
2019-03-04T22:51:50.949Z,8.19
2019-03-04T22:54:22.185Z,8.36
2019-03-04T22:56:53.218Z,8.39
2019-03-04T22:59:24.527Z,8.50
2019-03-04T23:02:02.036Z,8.53
2019-03-04T23:05:14.464Z,8.46
2019-03-04T23:07:52.563Z,8.64
2019-03-04T23:10:45.561Z,8.35
2019-03-04T23:13:55.626Z,8.35
2019-03-04T23:16:30.254Z,8.18
2019-03-04T23:19:01.395Z,8.19
2019-03-04T23:21:32.351Z,8.30
2019-03-04T23:24:03.503Z,8.45
2019-03-04T23:26:34.485Z,8.19
2019-03-04T23:29:05.604Z,8.32
2019-03-04T23:31:37.059Z,8.12
2019-03-04T23:34:08.119Z,8.18
2019-03-04T23:36:39.161Z,8.10
2019-03-04T23:39:10.565Z,7.88
2019-03-04T23:41:41.784Z,7.94
2019-03-04T23:44:12.795Z,8.04
2019-03-04T23:46:44.156Z,8.10
2019-03-04T23:49:15.134Z,7.98
2019-03-04T23:51:46.135Z,8.07
2019-03-04T23:54:17.112Z,7.95
2019-03-04T23:56:48.299Z,8.14
2019-03-04T23:59:19.618Z,7.96
